sensor_id;sensor_type;location;lat;lon;timestamp;temperature;humidity
71206;SHT31;58935;54.498;18.544;2023-01-16T00:01:31;5.08;72.08
71206;SHT31;58935;54.498;18.544;2023-01-16T00:03:56;5.09;72.03
71206;SHT31;58935;54.498;18.544;2023-01-16T00:06:22;5.10;72.10
71206;SHT31;58935;54.498;18.544;2023-01-16T00:08:47;5.08;72.13
71206;SHT31;58935;54.498;18.544;2023-01-16T00:11:14;5.09;72.04
71206;SHT31;58935;54.498;18.544;2023-01-16T00:13:40;5.09;72.08
71206;SHT31;58935;54.498;18.544;2023-01-16T00:16:06;5.10;72.14
71206;SHT31;58935;54.498;18.544;2023-01-16T00:18:32;5.12;72.35
71206;SHT31;58935;54.498;18.544;2023-01-16T00:20:58;5.15;72.16
71206;SHT31;58935;54.498;18.544;2023-01-16T00:23:24;5.17;72.08
71206;SHT31;58935;54.498;18.544;2023-01-16T00:25:50;5.20;71.92
71206;SHT31;58935;54.498;18.544;2023-01-16T00:28:15;5.21;71.90
71206;SHT31;58935;54.498;18.544;2023-01-16T00:30:44;5.22;71.77
71206;SHT31;58935;54.498;18.544;2023-01-16T00:33:10;5.22;71.83
71206;SHT31;58935;54.498;18.544;2023-01-16T00:35:35;5.20;71.86
71206;SHT31;58935;54.498;18.544;2023-01-16T00:38:03;5.18;71.85
71206;SHT31;58935;54.498;18.544;2023-01-16T00:40:30;5.15;71.92
71206;SHT31;58935;54.498;18.544;2023-01-16T00:42:55;5.14;71.81
71206;SHT31;58935;54.498;18.544;2023-01-16T00:45:21;5.13;72.08
71206;SHT31;58935;54.498;18.544;2023-01-16T00:47:47;5.10;72.23
71206;SHT31;58935;54.498;18.544;2023-01-16T00:50:13;5.08;72.27
71206;SHT31;58935;54.498;18.544;2023-01-16T00:52:38;5.04;72.11
71206;SHT31;58935;54.498;18.544;2023-01-16T00:55:06;5.06;72.12
71206;SHT31;58935;54.498;18.544;2023-01-16T00:57:32;5.03;72.32
71206;SHT31;58935;54.498;18.544;2023-01-16T00:59:58;5.01;72.19
71206;SHT31;58935;54.498;18.544;2023-01-16T01:02:23;4.98;72.30
71206;SHT31;58935;54.498;18.544;2023-01-16T01:04:49;4.95;72.44
71206;SHT31;58935;54.498;18.544;2023-01-16T01:07:14;4.93;72.64
71206;SHT31;58935;54.498;18.544;2023-01-16T01:09:40;4.88;72.70
71206;SHT31;58935;54.498;18.544;2023-01-16T01:12:07;4.86;72.78
71206;SHT31;58935;54.498;18.544;2023-01-16T01:14:35;4.83;72.97
71206;SHT31;58935;54.498;18.544;2023-01-16T01:17:00;4.81;73.04
71206;SHT31;58935;54.498;18.544;2023-01-16T01:19:26;4.79;73.03
71206;SHT31;58935;54.498;18.544;2023-01-16T01:21:54;4.77;73.08
71206;SHT31;58935;54.498;18.544;2023-01-16T01:24:22;4.74;73.08
71206;SHT31;58935;54.498;18.544;2023-01-16T01:26:47;4.74;73.11
71206;SHT31;58935;54.498;18.544;2023-01-16T01:29:13;4.72;73.23
71206;SHT31;58935;54.498;18.544;2023-01-16T01:31:38;4.71;73.29
71206;SHT31;58935;54.498;18.544;2023-01-16T01:34:04;4.68;73.41
71206;SHT31;58935;54.498;18.544;2023-01-16T01:36:29;4.66;73.47
71206;SHT31;58935;54.498;18.544;2023-01-16T01:38:55;4.63;73.58
71206;SHT31;58935;54.498;18.544;2023-01-16T01:41:22;4.63;73.62
71206;SHT31;58935;54.498;18.544;2023-01-16T01:43:50;4.61;73.69
71206;SHT31;58935;54.498;18.544;2023-01-16T01:46:24;4.60;73.70
71206;SHT31;58935;54.498;18.544;2023-01-16T01:49:04;4.59;73.76
71206;SHT31;58935;54.498;18.544;2023-01-16T01:51:41;4.57;73.80
71206;SHT31;58935;54.498;18.544;2023-01-16T01:54:12;4.56;73.82
71206;SHT31;58935;54.498;18.544;2023-01-16T01:56:47;4.55;73.90
71206;SHT31;58935;54.498;18.544;2023-01-16T01:59:22;4.54;74.00
71206;SHT31;58935;54.498;18.544;2023-01-16T02:01:54;4.52;74.00
71206;SHT31;58935;54.498;18.544;2023-01-16T02:04:24;4.53;74.05
71206;SHT31;58935;54.498;18.544;2023-01-16T02:06:56;4.51;74.10
71206;SHT31;58935;54.498;18.544;2023-01-16T02:09:31;4.51;74.13
71206;SHT31;58935;54.498;18.544;2023-01-16T02:14:34;4.49;74.20
71206;SHT31;58935;54.498;18.544;2023-01-16T02:17:06;4.47;74.30
71206;SHT31;58935;54.498;18.544;2023-01-16T02:34:00;4.40;74.59
71206;SHT31;58935;54.498;18.544;2023-01-16T02:42:04;4.34;74.78
71206;SHT31;58935;54.498;18.544;2023-01-16T02:44:50;4.34;74.80
71206;SHT31;58935;54.498;18.544;2023-01-16T02:47:48;4.34;74.82
71206;SHT31;58935;54.498;18.544;2023-01-16T02:53:10;4.32;74.90
71206;SHT31;58935;54.498;18.544;2023-01-16T02:55:50;4.32;74.97
71206;SHT31;58935;54.498;18.544;2023-01-16T02:58:22;4.31;75.00
71206;SHT31;58935;54.498;18.544;2023-01-16T03:00:52;4.31;75.06
71206;SHT31;58935;54.498;18.544;2023-01-16T03:06:19;4.30;75.11
71206;SHT31;58935;54.498;18.544;2023-01-16T03:14:48;4.27;75.20
71206;SHT31;58935;54.498;18.544;2023-01-16T03:20:28;4.27;75.30
71206;SHT31;58935;54.498;18.544;2023-01-16T03:23:35;4.27;75.31
71206;SHT31;58935;54.498;18.544;2023-01-16T03:26:21;4.28;75.40
71206;SHT31;58935;54.498;18.544;2023-01-16T03:29:07;4.29;75.49
71206;SHT31;58935;54.498;18.544;2023-01-16T03:34:24;4.36;75.54
71206;SHT31;58935;54.498;18.544;2023-01-16T03:37:22;4.39;75.43
71206;SHT31;58935;54.498;18.544;2023-01-16T03:40:02;4.39;75.31
71206;SHT31;58935;54.498;18.544;2023-01-16T03:42:34;4.39;75.30
71206;SHT31;58935;54.498;18.544;2023-01-16T03:45:13;4.40;75.29
71206;SHT31;58935;54.498;18.544;2023-01-16T03:47:49;4.41;75.37
71206;SHT31;58935;54.498;18.544;2023-01-16T03:50:24;4.42;75.37
71206;SHT31;58935;54.498;18.544;2023-01-16T03:52:53;4.45;75.33
71206;SHT31;58935;54.498;18.544;2023-01-16T03:55:28;4.49;75.34
71206;SHT31;58935;54.498;18.544;2023-01-16T03:58:04;4.52;75.27
71206;SHT31;58935;54.498;18.544;2023-01-16T04:03:28;4.55;75.11
71206;SHT31;58935;54.498;18.544;2023-01-16T04:08:42;4.57;74.97
71206;SHT31;58935;54.498;18.544;2023-01-16T04:11:11;4.55;74.78
71206;SHT31;58935;54.498;18.544;2023-01-16T04:13:40;4.51;74.68
71206;SHT31;58935;54.498;18.544;2023-01-16T04:16:13;4.47;74.71
71206;SHT31;58935;54.498;18.544;2023-01-16T04:18:44;4.41;74.75
71206;SHT31;58935;54.498;18.544;2023-01-16T04:21:13;4.37;74.81
71206;SHT31;58935;54.498;18.544;2023-01-16T04:23:38;4.33;74.91
71206;SHT31;58935;54.498;18.544;2023-01-16T04:26:04;4.32;75.06
71206;SHT31;58935;54.498;18.544;2023-01-16T04:28:30;4.31;75.10
71206;SHT31;58935;54.498;18.544;2023-01-16T04:30:55;4.29;75.17
71206;SHT31;58935;54.498;18.544;2023-01-16T04:33:21;4.31;75.24
71206;SHT31;58935;54.498;18.544;2023-01-16T04:35:47;4.33;75.30
71206;SHT31;58935;54.498;18.544;2023-01-16T04:38:12;4.35;75.30
71206;SHT31;58935;54.498;18.544;2023-01-16T04:40:38;4.37;75.34
71206;SHT31;58935;54.498;18.544;2023-01-16T04:43:03;4.39;75.30
71206;SHT31;58935;54.498;18.544;2023-01-16T04:45:29;4.41;75.38
71206;SHT31;58935;54.498;18.544;2023-01-16T04:47:55;4.43;75.30
71206;SHT31;58935;54.498;18.544;2023-01-16T04:50:20;4.45;75.21
71206;SHT31;58935;54.498;18.544;2023-01-16T04:52:46;4.47;75.20
71206;SHT31;58935;54.498;18.544;2023-01-16T04:55:12;4.48;75.20
71206;SHT31;58935;54.498;18.544;2023-01-16T04:57:38;4.49;75.22
71206;SHT31;58935;54.498;18.544;2023-01-16T05:00:05;4.51;75.22
71206;SHT31;58935;54.498;18.544;2023-01-16T05:02:33;4.52;75.14
71206;SHT31;58935;54.498;18.544;2023-01-16T05:05:01;4.55;75.18
71206;SHT31;58935;54.498;18.544;2023-01-16T05:07:27;4.57;75.14
71206;SHT31;58935;54.498;18.544;2023-01-16T05:09:53;4.58;75.10
71206;SHT31;58935;54.498;18.544;2023-01-16T05:12:19;4.60;75.03
71206;SHT31;58935;54.498;18.544;2023-01-16T05:14:45;4.61;75.06
71206;SHT31;58935;54.498;18.544;2023-01-16T05:17:11;4.64;74.95
71206;SHT31;58935;54.498;18.544;2023-01-16T05:19:36;4.64;74.90
71206;SHT31;58935;54.498;18.544;2023-01-16T05:22:02;4.63;74.87
71206;SHT31;58935;54.498;18.544;2023-01-16T05:24:27;4.63;74.91
71206;SHT31;58935;54.498;18.544;2023-01-16T05:26:53;4.63;74.94
71206;SHT31;58935;54.498;18.544;2023-01-16T05:29:21;4.63;74.85
71206;SHT31;58935;54.498;18.544;2023-01-16T05:31:46;4.61;74.90
71206;SHT31;58935;54.498;18.544;2023-01-16T05:34:12;4.59;74.85
71206;SHT31;58935;54.498;18.544;2023-01-16T05:36:37;4.58;74.87
71206;SHT31;58935;54.498;18.544;2023-01-16T05:39:03;4.56;74.93
71206;SHT31;58935;54.498;18.544;2023-01-16T05:41:28;4.55;74.92
71206;SHT31;58935;54.498;18.544;2023-01-16T05:43:54;4.51;74.92
71206;SHT31;58935;54.498;18.544;2023-01-16T05:46:19;4.48;75.00
71206;SHT31;58935;54.498;18.544;2023-01-16T05:48:45;4.43;74.93
71206;SHT31;58935;54.498;18.544;2023-01-16T05:51:11;4.38;75.02
71206;SHT31;58935;54.498;18.544;2023-01-16T05:53:37;4.32;75.11
71206;SHT31;58935;54.498;18.544;2023-01-16T05:58:34;4.19;75.26
71206;SHT31;58935;54.498;18.544;2023-01-16T06:01:00;4.14;75.38
71206;SHT31;58935;54.498;18.544;2023-01-16T06:03:26;4.08;75.41
71206;SHT31;58935;54.498;18.544;2023-01-16T06:05:51;4.01;75.57
71206;SHT31;58935;54.498;18.544;2023-01-16T06:08:17;3.96;75.67
71206;SHT31;58935;54.498;18.544;2023-01-16T06:10:42;3.90;75.76
71206;SHT31;58935;54.498;18.544;2023-01-16T06:13:13;3.84;76.01
71206;SHT31;58935;54.498;18.544;2023-01-16T06:15:39;3.79;76.10
71206;SHT31;58935;54.498;18.544;2023-01-16T06:18:06;3.73;76.23
71206;SHT31;58935;54.498;18.544;2023-01-16T06:20:34;3.69;76.42
71206;SHT31;58935;54.498;18.544;2023-01-16T06:23:00;3.66;76.53
71206;SHT31;58935;54.498;18.544;2023-01-16T06:25:25;3.62;76.58
71206;SHT31;58935;54.498;18.544;2023-01-16T06:27:51;3.59;76.70
71206;SHT31;58935;54.498;18.544;2023-01-16T06:30:17;3.57;76.82
71206;SHT31;58935;54.498;18.544;2023-01-16T06:32:47;3.55;76.97
71206;SHT31;58935;54.498;18.544;2023-01-16T06:35:15;3.53;77.07
71206;SHT31;58935;54.498;18.544;2023-01-16T06:37:41;3.50;77.24
71206;SHT31;58935;54.498;18.544;2023-01-16T06:40:09;3.48;77.28
71206;SHT31;58935;54.498;18.544;2023-01-16T06:42:36;3.45;77.42
71206;SHT31;58935;54.498;18.544;2023-01-16T06:45:01;3.44;77.57
71206;SHT31;58935;54.498;18.544;2023-01-16T06:47:27;3.43;77.70
71206;SHT31;58935;54.498;18.544;2023-01-16T06:49:53;3.43;77.74
71206;SHT31;58935;54.498;18.544;2023-01-16T06:52:21;3.41;77.80
71206;SHT31;58935;54.498;18.544;2023-01-16T06:54:49;3.40;77.82
71206;SHT31;58935;54.498;18.544;2023-01-16T06:57:14;3.38;77.94
71206;SHT31;58935;54.498;18.544;2023-01-16T06:59:40;3.36;78.07
71206;SHT31;58935;54.498;18.544;2023-01-16T07:02:05;3.37;78.12
71206;SHT31;58935;54.498;18.544;2023-01-16T07:04:33;3.37;78.28
71206;SHT31;58935;54.498;18.544;2023-01-16T07:06:59;3.37;78.21
71206;SHT31;58935;54.498;18.544;2023-01-16T07:09:24;3.38;78.33
71206;SHT31;58935;54.498;18.544;2023-01-16T07:11:53;3.39;78.34
71206;SHT31;58935;54.498;18.544;2023-01-16T07:14:26;3.40;78.41
71206;SHT31;58935;54.498;18.544;2023-01-16T07:16:54;3.41;78.41
71206;SHT31;58935;54.498;18.544;2023-01-16T07:19:23;3.42;78.41
71206;SHT31;58935;54.498;18.544;2023-01-16T07:21:51;3.42;78.39
71206;SHT31;58935;54.498;18.544;2023-01-16T07:24:21;3.46;78.42
71206;SHT31;58935;54.498;18.544;2023-01-16T07:26:51;3.46;78.48
71206;SHT31;58935;54.498;18.544;2023-01-16T07:29:22;3.49;78.52
71206;SHT31;58935;54.498;18.544;2023-01-16T07:31:50;3.51;78.43
71206;SHT31;58935;54.498;18.544;2023-01-16T07:34:16;3.53;78.40
71206;SHT31;58935;54.498;18.544;2023-01-16T07:36:41;3.55;78.40
71206;SHT31;58935;54.498;18.544;2023-01-16T07:39:09;3.57;78.35
71206;SHT31;58935;54.498;18.544;2023-01-16T07:41:39;3.58;78.35
71206;SHT31;58935;54.498;18.544;2023-01-16T07:44:07;3.60;78.32
71206;SHT31;58935;54.498;18.544;2023-01-16T07:46:32;3.61;78.31
71206;SHT31;58935;54.498;18.544;2023-01-16T07:48:58;3.63;78.26
71206;SHT31;58935;54.498;18.544;2023-01-16T07:51:26;3.64;78.21
71206;SHT31;58935;54.498;18.544;2023-01-16T07:53:51;3.65;78.20
71206;SHT31;58935;54.498;18.544;2023-01-16T07:56:20;3.65;78.20
71206;SHT31;58935;54.498;18.544;2023-01-16T07:58:45;3.66;78.20
71206;SHT31;58935;54.498;18.544;2023-01-16T08:01:17;3.66;78.22
71206;SHT31;58935;54.498;18.544;2023-01-16T08:03:42;3.66;78.29
71206;SHT31;58935;54.498;18.544;2023-01-16T08:06:08;3.68;78.26
71206;SHT31;58935;54.498;18.544;2023-01-16T08:08:36;3.69;78.30
71206;SHT31;58935;54.498;18.544;2023-01-16T08:11:02;3.69;78.28
71206;SHT31;58935;54.498;18.544;2023-01-16T08:13:47;3.70;78.23
71206;SHT31;58935;54.498;18.544;2023-01-16T08:16:13;3.72;78.21
71206;SHT31;58935;54.498;18.544;2023-01-16T08:18:41;3.73;78.22
71206;SHT31;58935;54.498;18.544;2023-01-16T08:21:13;3.74;78.29
71206;SHT31;58935;54.498;18.544;2023-01-16T08:23:41;3.78;78.25
71206;SHT31;58935;54.498;18.544;2023-01-16T08:26:07;3.81;78.22
71206;SHT31;58935;54.498;18.544;2023-01-16T08:28:34;3.83;78.20
71206;SHT31;58935;54.498;18.544;2023-01-16T08:31:04;3.85;78.15
71206;SHT31;58935;54.498;18.544;2023-01-16T08:33:34;3.87;78.12
71206;SHT31;58935;54.498;18.544;2023-01-16T08:36:03;3.93;78.19
71206;SHT31;58935;54.498;18.544;2023-01-16T08:38:33;3.97;78.14
71206;SHT31;58935;54.498;18.544;2023-01-16T08:41:02;4.01;77.98
71206;SHT31;58935;54.498;18.544;2023-01-16T08:43:27;4.04;77.91
71206;SHT31;58935;54.498;18.544;2023-01-16T08:45:56;4.08;77.78
71206;SHT31;58935;54.498;18.544;2023-01-16T08:48:25;4.10;77.68
71206;SHT31;58935;54.498;18.544;2023-01-16T08:50:55;4.13;77.65
71206;SHT31;58935;54.498;18.544;2023-01-16T08:53:25;4.18;77.57
71206;SHT31;58935;54.498;18.544;2023-01-16T08:55:53;4.22;77.50
71206;SHT31;58935;54.498;18.544;2023-01-16T08:58:20;4.26;77.35
71206;SHT31;58935;54.498;18.544;2023-01-16T09:00:47;4.30;77.07
71206;SHT31;58935;54.498;18.544;2023-01-16T09:03:14;4.34;77.07
71206;SHT31;58935;54.498;18.544;2023-01-16T09:05:43;4.40;77.07
71206;SHT31;58935;54.498;18.544;2023-01-16T09:08:08;4.46;76.76
71206;SHT31;58935;54.498;18.544;2023-01-16T09:10:34;4.52;76.86
71206;SHT31;58935;54.498;18.544;2023-01-16T09:13:00;4.59;76.75
71206;SHT31;58935;54.498;18.544;2023-01-16T09:15:28;4.64;76.35
71206;SHT31;58935;54.498;18.544;2023-01-16T09:17:54;4.68;76.13
71206;SHT31;58935;54.498;18.544;2023-01-16T09:20:20;4.73;76.00
71206;SHT31;58935;54.498;18.544;2023-01-16T09:22:48;4.77;75.90
71206;SHT31;58935;54.498;18.544;2023-01-16T09:25:13;4.82;75.85
71206;SHT31;58935;54.498;18.544;2023-01-16T09:27:43;4.88;75.80
71206;SHT31;58935;54.498;18.544;2023-01-16T09:30:12;4.95;75.65
71206;SHT31;58935;54.498;18.544;2023-01-16T09:32:38;5.01;75.61
71206;SHT31;58935;54.498;18.544;2023-01-16T09:35:06;5.08;75.43
71206;SHT31;58935;54.498;18.544;2023-01-16T09:37:32;5.12;75.21
71206;SHT31;58935;54.498;18.544;2023-01-16T09:39:57;5.16;74.90
71206;SHT31;58935;54.498;18.544;2023-01-16T09:45:06;5.19;74.41
71206;SHT31;58935;54.498;18.544;2023-01-16T09:47:36;5.23;74.43
71206;SHT31;58935;54.498;18.544;2023-01-16T09:50:10;5.24;74.20
71206;SHT31;58935;54.498;18.544;2023-01-16T09:52:45;5.26;74.28
71206;SHT31;58935;54.498;18.544;2023-01-16T09:55:19;5.31;74.40
71206;SHT31;58935;54.498;18.544;2023-01-16T09:57:57;5.35;74.34
71206;SHT31;58935;54.498;18.544;2023-01-16T10:00:26;5.38;74.07
71206;SHT31;58935;54.498;18.544;2023-01-16T10:02:56;5.39;74.03
71206;SHT31;58935;54.498;18.544;2023-01-16T10:05:23;5.41;73.99
71206;SHT31;58935;54.498;18.544;2023-01-16T10:08:01;5.41;73.81
71206;SHT31;58935;54.498;18.544;2023-01-16T10:10:45;5.41;73.79
71206;SHT31;58935;54.498;18.544;2023-01-16T10:24:10;5.42;73.41
71206;SHT31;58935;54.498;18.544;2023-01-16T10:29:25;5.35;73.47
71206;SHT31;58935;54.498;18.544;2023-01-16T10:32:10;5.32;73.46
71206;SHT31;58935;54.498;18.544;2023-01-16T10:34:51;5.29;73.49
71206;SHT31;58935;54.498;18.544;2023-01-16T10:37:29;5.26;73.60
71206;SHT31;58935;54.498;18.544;2023-01-16T10:39:55;5.27;73.73
71206;SHT31;58935;54.498;18.544;2023-01-16T10:42:25;5.28;73.67
71206;SHT31;58935;54.498;18.544;2023-01-16T10:47:53;5.38;73.96
71206;SHT31;58935;54.498;18.544;2023-01-16T10:50:23;5.43;73.87
71206;SHT31;58935;54.498;18.544;2023-01-16T10:52:50;5.48;73.41
71206;SHT31;58935;54.498;18.544;2023-01-16T10:55:21;5.50;73.32
71206;SHT31;58935;54.498;18.544;2023-01-16T10:57:55;5.54;73.51
71206;SHT31;58935;54.498;18.544;2023-01-16T11:00:31;5.61;73.68
71206;SHT31;58935;54.498;18.544;2023-01-16T11:05:43;5.82;73.49
71206;SHT31;58935;54.498;18.544;2023-01-16T11:08:12;5.91;73.17
71206;SHT31;58935;54.498;18.544;2023-01-16T11:10:44;6.01;73.01
71206;SHT31;58935;54.498;18.544;2023-01-16T11:18:29;6.18;72.28
71206;SHT31;58935;54.498;18.544;2023-01-16T11:23:38;6.32;71.95
71206;SHT31;58935;54.498;18.544;2023-01-16T11:26:07;6.33;71.60
71206;SHT31;58935;54.498;18.544;2023-01-16T11:28:36;6.34;71.51
71206;SHT31;58935;54.498;18.544;2023-01-16T11:31:03;6.36;71.36
71206;SHT31;58935;54.498;18.544;2023-01-16T11:33:40;6.36;71.34
71206;SHT31;58935;54.498;18.544;2023-01-16T11:36:19;6.36;71.14
71206;SHT31;58935;54.498;18.544;2023-01-16T11:38:48;6.39;71.31
71206;SHT31;58935;54.498;18.544;2023-01-16T11:41:19;6.42;71.30
71206;SHT31;58935;54.498;18.544;2023-01-16T11:44:03;6.47;71.20
71206;SHT31;58935;54.498;18.544;2023-01-16T11:46:41;6.50;71.07
71206;SHT31;58935;54.498;18.544;2023-01-16T11:51:41;6.55;70.95
71206;SHT31;58935;54.498;18.544;2023-01-16T11:54:14;6.56;70.77
71206;SHT31;58935;54.498;18.544;2023-01-16T11:56:50;6.57;70.68
71206;SHT31;58935;54.498;18.544;2023-01-16T11:59:41;6.59;70.49
71206;SHT31;58935;54.498;18.544;2023-01-16T12:03:05;6.57;70.31
71206;SHT31;58935;54.498;18.544;2023-01-16T12:14:41;6.42;70.13
71206;SHT31;58935;54.498;18.544;2023-01-16T14:55:50;4.33;77.06
71206;SHT31;58935;54.498;18.544;2023-01-16T14:58:31;4.27;77.27
71206;SHT31;58935;54.498;18.544;2023-01-16T15:01:05;4.21;77.54
71206;SHT31;58935;54.498;18.544;2023-01-16T15:03:42;4.16;77.70
71206;SHT31;58935;54.498;18.544;2023-01-16T15:06:10;4.13;77.84
71206;SHT31;58935;54.498;18.544;2023-01-16T15:08:39;4.08;78.02
71206;SHT31;58935;54.498;18.544;2023-01-16T15:14:05;4.02;78.27
71206;SHT31;58935;54.498;18.544;2023-01-16T15:16:41;3.99;78.32
71206;SHT31;58935;54.498;18.544;2023-01-16T15:21:46;3.93;78.57
71206;SHT31;58935;54.498;18.544;2023-01-16T15:24:19;3.91;78.76
71206;SHT31;58935;54.498;18.544;2023-01-16T15:29:34;3.86;79.00
71206;SHT31;58935;54.498;18.544;2023-01-16T15:32:19;3.82;79.19
71206;SHT31;58935;54.498;18.544;2023-01-16T15:34:47;3.79;79.28
71206;SHT31;58935;54.498;18.544;2023-01-16T15:37:55;3.77;79.39
71206;SHT31;58935;54.498;18.544;2023-01-16T15:40:23;3.74;79.44
71206;SHT31;58935;54.498;18.544;2023-01-16T15:42:54;3.71;79.50
71206;SHT31;58935;54.498;18.544;2023-01-16T15:45:24;3.70;79.52
71206;SHT31;58935;54.498;18.544;2023-01-16T15:58:48;3.59;79.82
71206;SHT31;58935;54.498;18.544;2023-01-16T16:01:23;3.58;79.85
71206;SHT31;58935;54.498;18.544;2023-01-16T16:03:54;3.56;79.85
71206;SHT31;58935;54.498;18.544;2023-01-16T16:06:23;3.54;79.80
71206;SHT31;58935;54.498;18.544;2023-01-16T16:08:51;3.52;79.80
71206;SHT31;58935;54.498;18.544;2023-01-16T16:11:21;3.50;79.85
71206;SHT31;58935;54.498;18.544;2023-01-16T16:13:53;3.46;79.86
71206;SHT31;58935;54.498;18.544;2023-01-16T16:16:21;3.44;79.99
71206;SHT31;58935;54.498;18.544;2023-01-16T16:18:54;3.42;80.10
71206;SHT31;58935;54.498;18.544;2023-01-16T16:21:25;3.40;80.10
71206;SHT31;58935;54.498;18.544;2023-01-16T16:23:57;3.38;80.15
71206;SHT31;58935;54.498;18.544;2023-01-16T16:26:28;3.38;80.23
71206;SHT31;58935;54.498;18.544;2023-01-16T16:29:00;3.38;80.27
71206;SHT31;58935;54.498;18.544;2023-01-16T16:31:29;3.40;80.32
71206;SHT31;58935;54.498;18.544;2023-01-16T16:34:02;3.43;80.40
71206;SHT31;58935;54.498;18.544;2023-01-16T16:36:38;3.46;80.30
71206;SHT31;58935;54.498;18.544;2023-01-16T16:41:44;3.51;80.30
71206;SHT31;58935;54.498;18.544;2023-01-16T16:44:20;3.51;80.25
71206;SHT31;58935;54.498;18.544;2023-01-16T16:46:49;3.51;80.24
71206;SHT31;58935;54.498;18.544;2023-01-16T16:54:34;3.48;80.35
71206;SHT31;58935;54.498;18.544;2023-01-16T16:57:00;3.47;80.41
71206;SHT31;58935;54.498;18.544;2023-01-16T16:59:26;3.46;80.44
71206;SHT31;58935;54.498;18.544;2023-01-16T17:01:57;3.44;80.43
71206;SHT31;58935;54.498;18.544;2023-01-16T17:04:28;3.42;80.48
71206;SHT31;58935;54.498;18.544;2023-01-16T17:06:55;3.39;80.49
71206;SHT31;58935;54.498;18.544;2023-01-16T17:09:24;3.38;80.50
71206;SHT31;58935;54.498;18.544;2023-01-16T17:11:51;3.34;80.51
71206;SHT31;58935;54.498;18.544;2023-01-16T17:14:16;3.31;80.54
71206;SHT31;58935;54.498;18.544;2023-01-16T17:16:44;3.27;80.67
71206;SHT31;58935;54.498;18.544;2023-01-16T17:19:15;3.23;80.62
71206;SHT31;58935;54.498;18.544;2023-01-16T17:21:47;3.22;80.72
71206;SHT31;58935;54.498;18.544;2023-01-16T17:24:17;3.18;80.80
71206;SHT31;58935;54.498;18.544;2023-01-16T17:26:45;3.16;80.81
71206;SHT31;58935;54.498;18.544;2023-01-16T17:29:11;3.13;80.94
71206;SHT31;58935;54.498;18.544;2023-01-16T17:31:39;3.11;81.02
71206;SHT31;58935;54.498;18.544;2023-01-16T17:36:40;3.05;81.06
71206;SHT31;58935;54.498;18.544;2023-01-16T17:39:08;3.02;81.15
71206;SHT31;58935;54.498;18.544;2023-01-16T17:41:35;3.01;81.19
71206;SHT31;58935;54.498;18.544;2023-01-16T17:44:08;2.97;81.19
71206;SHT31;58935;54.498;18.544;2023-01-16T17:46:45;2.97;81.27
71206;SHT31;58935;54.498;18.544;2023-01-16T17:49:13;2.95;81.30
71206;SHT31;58935;54.498;18.544;2023-01-16T17:51:39;2.93;81.39
71206;SHT31;58935;54.498;18.544;2023-01-16T17:54:04;2.91;81.50
71206;SHT31;58935;54.498;18.544;2023-01-16T17:56:30;2.90;81.53
71206;SHT31;58935;54.498;18.544;2023-01-16T17:58:55;2.89;81.50
71206;SHT31;58935;54.498;18.544;2023-01-16T18:01:31;2.86;81.60
71206;SHT31;58935;54.498;18.544;2023-01-16T18:04:00;2.83;81.61
71206;SHT31;58935;54.498;18.544;2023-01-16T18:06:31;2.82;81.62
71206;SHT31;58935;54.498;18.544;2023-01-16T18:09:00;2.81;81.66
71206;SHT31;58935;54.498;18.544;2023-01-16T18:11:31;2.78;81.78
71206;SHT31;58935;54.498;18.544;2023-01-16T18:14:00;2.77;81.80
71206;SHT31;58935;54.498;18.544;2023-01-16T18:16:29;2.74;81.74
71206;SHT31;58935;54.498;18.544;2023-01-16T18:18:58;2.73;81.73
71206;SHT31;58935;54.498;18.544;2023-01-16T18:21:24;2.70;81.79
71206;SHT31;58935;54.498;18.544;2023-01-16T18:23:53;2.68;81.82
71206;SHT31;58935;54.498;18.544;2023-01-16T18:26:20;2.66;81.88
71206;SHT31;58935;54.498;18.544;2023-01-16T18:28:46;2.64;81.94
71206;SHT31;58935;54.498;18.544;2023-01-16T18:31:11;2.62;82.00
71206;SHT31;58935;54.498;18.544;2023-01-16T18:33:37;2.61;82.00
71206;SHT31;58935;54.498;18.544;2023-01-16T18:36:03;2.59;82.03
71206;SHT31;58935;54.498;18.544;2023-01-16T18:38:32;2.59;82.10
71206;SHT31;58935;54.498;18.544;2023-01-16T18:41:01;2.60;82.10
71206;SHT31;58935;54.498;18.544;2023-01-16T18:43:29;2.60;82.09
71206;SHT31;58935;54.498;18.544;2023-01-16T18:45:58;2.59;82.16
71206;SHT31;58935;54.498;18.544;2023-01-16T18:48:26;2.58;82.19
71206;SHT31;58935;54.498;18.544;2023-01-16T18:50:55;2.58;82.12
71206;SHT31;58935;54.498;18.544;2023-01-16T18:53:35;2.60;82.13
71206;SHT31;58935;54.498;18.544;2023-01-16T18:56:11;2.60;82.11
71206;SHT31;58935;54.498;18.544;2023-01-16T18:58:42;2.60;82.14
71206;SHT31;58935;54.498;18.544;2023-01-16T19:01:13;2.60;82.05
71206;SHT31;58935;54.498;18.544;2023-01-16T19:03:42;2.59;82.08
71206;SHT31;58935;54.498;18.544;2023-01-16T19:06:07;2.58;82.21
71206;SHT31;58935;54.498;18.544;2023-01-16T19:08:33;2.58;82.14
71206;SHT31;58935;54.498;18.544;2023-01-16T19:10:59;2.57;82.12
71206;SHT31;58935;54.498;18.544;2023-01-16T19:13:25;2.59;82.18
71206;SHT31;58935;54.498;18.544;2023-01-16T19:16:02;2.59;82.13
71206;SHT31;58935;54.498;18.544;2023-01-16T19:18:33;2.57;82.13
71206;SHT31;58935;54.498;18.544;2023-01-16T19:20:59;2.56;82.15
71206;SHT31;58935;54.498;18.544;2023-01-16T19:23:24;2.56;82.12
71206;SHT31;58935;54.498;18.544;2023-01-16T19:25:50;2.54;82.04
71206;SHT31;58935;54.498;18.544;2023-01-16T19:28:16;2.53;82.07
71206;SHT31;58935;54.498;18.544;2023-01-16T19:30:42;2.50;82.05
71206;SHT31;58935;54.498;18.544;2023-01-16T19:33:07;2.49;82.09
71206;SHT31;58935;54.498;18.544;2023-01-16T19:35:33;2.49;82.17
71206;SHT31;58935;54.498;18.544;2023-01-16T19:37:58;2.48;82.11
71206;SHT31;58935;54.498;18.544;2023-01-16T19:40:24;2.47;82.17
71206;SHT31;58935;54.498;18.544;2023-01-16T19:42:50;2.46;82.13
71206;SHT31;58935;54.498;18.544;2023-01-16T19:45:18;2.43;82.18
71206;SHT31;58935;54.498;18.544;2023-01-16T19:47:47;2.39;82.21
71206;SHT31;58935;54.498;18.544;2023-01-16T19:50:12;2.37;82.30
71206;SHT31;58935;54.498;18.544;2023-01-16T19:52:38;2.38;82.32
71206;SHT31;58935;54.498;18.544;2023-01-16T19:55:04;2.37;82.35
71206;SHT31;58935;54.498;18.544;2023-01-16T19:57:31;2.38;82.48
71206;SHT31;58935;54.498;18.544;2023-01-16T19:59:56;2.39;82.45
71206;SHT31;58935;54.498;18.544;2023-01-16T20:02:22;2.39;82.41
71206;SHT31;58935;54.498;18.544;2023-01-16T20:04:47;2.39;82.47
71206;SHT31;58935;54.498;18.544;2023-01-16T20:07:13;2.42;82.51
71206;SHT31;58935;54.498;18.544;2023-01-16T20:09:41;2.47;82.59
71206;SHT31;58935;54.498;18.544;2023-01-16T20:12:10;2.53;82.52
71206;SHT31;58935;54.498;18.544;2023-01-16T20:14:43;2.59;82.53
71206;SHT31;58935;54.498;18.544;2023-01-16T20:17:09;2.63;82.50
71206;SHT31;58935;54.498;18.544;2023-01-16T20:19:37;2.65;82.43
71206;SHT31;58935;54.498;18.544;2023-01-16T20:22:04;2.67;82.45